Time;durP1;ratioP1;P1;durP2;ratioP2;P2;SDS_P1;SDS_P2;PMS_P1;PMS_P2;Temp;Humidity;BMP_temperature;BMP_pressure;BME280_temperature;BME280_humidity;BME280_pressure;Samples;Min_cycle;Max_cycle;Signal;HPM_P1;HPM_P2
2021/08/06 00:01:41;;;;;;;2.40;1.70;;;;;;;23.38;43.89;99079.63;4975813;28;20121;-88
2021/08/06 00:04:08;;;;;;;3.38;1.80;;;;;;;23.44;43.30;99072.75;4974793;28;20398;-87
2021/08/06 00:06:40;;;;;;;2.58;1.48;;;;;;;23.37;43.33;99077.97;4975747;28;20042;-90
2021/08/06 00:09:09;;;;;;;2.00;1.50;;;;;;;23.49;43.44;99081.81;4974982;28;20038;-88
2021/08/06 00:11:37;;;;;;;1.60;1.50;;;;;;;23.28;44.06;99079.13;4974534;28;20113;-88
2021/08/06 00:14:04;;;;;;;4.57;1.70;;;;;;;23.19;44.33;99081.03;4969899;28;20461;-88
2021/08/06 00:16:32;;;;;;;3.90;2.65;;;;;;;22.94;45.03;99085.81;4974458;28;20134;-87
2021/08/06 00:18:59;;;;;;;3.03;1.63;;;;;;;22.81;45.33;99072.34;4957432;28;20042;-87
2021/08/06 00:21:26;;;;;;;3.65;1.70;;;;;;;22.72;45.78;99084.06;4974361;28;20406;-88
2021/08/06 00:23:53;;;;;;;2.58;2.10;;;;;;;22.93;45.56;99080.72;4974822;28;20090;-88
2021/08/06 00:26:19;;;;;;;3.10;1.73;;;;;;;22.91;46.43;99093.38;4973994;28;20490;-87
2021/08/06 00:28:46;;;;;;;8.77;3.80;;;;;;;22.68;45.98;99090.75;4974471;28;20101;-87
2021/08/06 00:31:13;;;;;;;3.60;1.95;;;;;;;22.46;46.88;99084.50;4958105;28;20442;-87
2021/08/06 00:33:41;;;;;;;3.13;1.80;;;;;;;22.56;46.50;99076.28;4957232;28;20125;-88
2021/08/06 00:36:10;;;;;;;4.50;2.40;;;;;;;22.39;47.00;99080.94;4974229;28;20035;-88
2021/08/06 00:38:37;;;;;;;6.47;1.85;;;;;;;22.32;47.19;99080.84;4957844;28;20466;-87
2021/08/06 00:41:05;;;;;;;4.97;2.22;;;;;;;22.22;47.49;99078.44;4966387;28;20510;-88
2021/08/06 00:43:33;;;;;;;2.58;1.75;;;;;;;22.11;47.48;99080.69;4956587;28;20049;-88
2021/08/06 00:46:05;;;;;;;4.32;2.10;;;;;;;22.13;47.64;99079.50;4956923;28;20493;-86
2021/08/06 00:48:36;;;;;;;4.65;2.22;;;;;;;22.21;47.47;99079.44;4956753;28;20063;-88
2021/08/06 00:51:05;;;;;;;4.60;2.25;;;;;;;22.17;47.53;99077.31;4956688;28;20102;-88
2021/08/06 00:53:33;;;;;;;5.30;2.20;;;;;;;22.18;47.44;99084.28;4956550;28;20054;-88
2021/08/06 00:56:05;;;;;;;6.32;2.45;;;;;;;22.14;47.76;99080.31;4956891;28;20043;-87
2021/08/06 00:58:34;;;;;;;2.50;1.65;;;;;;;22.21;47.59;99081.25;4964441;28;20493;-88
2021/08/06 01:01:03;;;;;;;4.20;2.03;;;;;;;22.12;48.01;99087.66;4956563;28;20042;-89
2021/08/06 01:03:56;;;;;;;3.92;2.10;;;;;;;22.40;47.49;99101.16;4956579;28;20039;-88
2021/08/06 01:06:51;;;;;;;4.55;2.35;;;;;;;22.05;48.73;99103.44;4961881;28;20050;-89
2021/08/06 01:09:55;;;;;;;3.05;2.40;;;;;;;21.98;49.11;99108.59;4940727;28;20066;-89
2021/08/06 01:12:43;;;;;;;2.28;1.80;;;;;;;21.81;49.85;99109.72;4956362;28;20047;-89
2021/08/06 01:15:12;;;;;;;5.10;2.17;;;;;;;21.67;50.25;99113.13;4955792;28;20054;-89
2021/08/06 01:17:43;;;;;;;3.30;2.10;;;;;;;21.67;50.12;99115.78;4956500;28;20077;-89
2021/08/06 01:20:34;;;;;;;5.28;2.42;;;;;;;21.78;49.78;99120.69;4956311;28;20418;-90
2021/08/06 01:23:28;;;;;;;4.07;2.35;;;;;;;21.74;49.87;99124.72;4971601;28;20047;-89
2021/08/06 01:25:56;;;;;;;3.75;1.90;;;;;;;21.54;50.76;99126.16;4954111;28;20220;-88
2021/08/06 01:28:39;;;;;;;2.03;1.83;;;;;;;21.34;51.29;99129.22;4937436;29;20458;-89
2021/08/06 01:31:07;;;;;;;3.17;1.95;;;;;;;21.73;50.16;99124.84;4958047;28;20553;-89
2021/08/06 01:33:42;;;;;;;2.80;1.73;;;;;;;21.39;51.00;99134.81;4956339;28;20039;-88
2021/08/06 01:36:13;;;;;;;2.77;2.00;;;;;;;21.10;52.25;99140.72;4956085;28;20051;-89
2021/08/06 01:38:41;;;;;;;2.28;1.73;;;;;;;21.22;51.85;99135.88;4966223;28;20058;-87
2021/08/06 01:41:15;;;;;;;2.35;1.75;;;;;;;21.18;52.32;99134.56;4975766;28;20105;-89
2021/08/06 01:44:02;;;;;;;2.45;1.65;;;;;;;21.07;53.21;99135.75;4974557;28;20049;-89
2021/08/06 01:46:59;;;;;;;3.75;1.52;;;;;;;20.86;53.50;99136.31;4975194;28;20497;-89
2021/08/06 01:49:35;;;;;;;4.47;1.38;;;;;;;20.62;53.94;99139.03;4950144;28;20042;-89
2021/08/06 01:52:15;;;;;;;2.97;1.88;;;;;;;20.75;53.57;99139.31;4975303;28;20141;-89
2021/08/06 01:54:46;;;;;;;8.10;2.10;;;;;;;20.54;54.47;99145.13;4978900;28;20043;-88
2021/08/06 01:57:14;;;;;;;3.42;1.85;;;;;;;20.56;54.29;99142.31;4979293;28;20441;-89
2021/08/06 01:59:47;;;;;;;3.42;2.30;;;;;;;20.38;54.53;99153.06;4978751;28;20065;-86
2021/08/06 02:02:14;;;;;;;5.80;2.50;;;;;;;20.57;54.08;99155.41;4978970;28;20536;-88
2021/08/06 02:04:46;;;;;;;4.50;2.08;;;;;;;20.41;54.50;99158.84;4978651;28;20133;-88
2021/08/06 02:07:20;;;;;;;4.35;2.00;;;;;;;20.45;54.23;99156.69;4978951;28;20084;-86
2021/08/06 02:09:54;;;;;;;3.83;2.28;;;;;;;20.40;54.60;99159.03;4978448;28;20050;-88
2021/08/06 02:12:28;;;;;;;6.22;2.08;;;;;;;20.20;55.55;99166.47;4978824;28;20057;-88
2021/08/06 02:15:00;;;;;;;4.45;1.70;;;;;;;20.11;56.07;99159.50;4978307;28;20133;-88
2021/08/06 02:17:33;;;;;;;3.05;1.67;;;;;;;20.05;56.12;99154.88;4978824;28;20085;-88
2021/08/06 02:20:09;;;;;;;2.38;1.88;;;;;;;19.95;56.19;99154.19;4995900;28;20409;-88
2021/08/06 02:22:45;;;;;;;2.55;1.88;;;;;;;20.12;55.85;99151.38;4978698;28;20038;-89
2021/08/06 02:25:22;;;;;;;6.20;2.63;;;;;;;20.12;55.72;99150.56;4978374;28;20390;-89
2021/08/06 02:27:54;;;;;;;3.55;1.58;;;;;;;20.08;55.93;99155.38;4978422;28;20077;-89
2021/08/06 02:30:23;;;;;;;3.75;2.03;;;;;;;20.01;56.10;99154.34;4978525;28;20043;-89
2021/08/06 02:32:56;;;;;;;3.05;1.92;;;;;;;20.06;56.19;99160.00;4978200;28;20078;-88
2021/08/06 02:35:22;;;;;;;3.85;2.25;;;;;;;19.93;56.72;99161.47;4978345;28;20404;-88
2021/08/06 02:37:50;;;;;;;4.15;2.42;;;;;;;19.76;57.30;99153.50;4977920;28;20088;-89
2021/08/06 02:40:17;;;;;;;4.43;2.08;;;;;;;19.66;57.47;99157.28;4978327;28;20501;-89
2021/08/06 02:42:44;;;;;;;2.70;1.60;;;;;;;19.75;57.14;99151.00;4995728;28;20069;-89
2021/08/06 02:45:11;;;;;;;3.97;1.88;;;;;;;19.80;57.09;99152.16;4978229;28;20038;-88
2021/08/06 02:47:38;;;;;;;3.67;1.67;;;;;;;19.77;57.45;99151.69;4995352;28;20132;-89
2021/08/06 02:50:06;;;;;;;5.40;1.92;;;;;;;19.67;57.75;99151.00;4995988;28;20038;-88
2021/08/06 02:52:33;;;;;;;3.97;1.92;;;;;;;19.65;57.89;99153.78;4978035;28;20049;-90
2021/08/06 02:55:00;;;;;;;15.52;3.53;;;;;;;19.66;58.05;99159.94;4995424;28;20034;-90
2021/08/06 02:57:27;;;;;;;5.22;2.45;;;;;;;19.76;57.58;99163.22;4978142;28;20448;-89
2021/08/06 02:59:54;;;;;;;3.55;2.08;;;;;;;19.68;58.10;99161.41;4977666;28;20575;-88
2021/08/06 03:02:22;;;;;;;4.80;1.95;;;;;;;19.60;58.67;99156.94;4977867;28;20060;-89
2021/08/06 03:04:49;;;;;;;8.00;3.22;;;;;;;19.55;58.85;99150.44;4976611;28;20476;-89
2021/08/06 03:07:18;;;;;;;3.78;2.30;;;;;;;19.48;59.61;99152.88;4995354;28;20461;-88
2021/08/06 03:09:49;;;;;;;7.90;2.23;;;;;;;19.46;59.70;99148.75;4977403;28;20491;-88
2021/08/06 03:12:17;;;;;;;3.22;1.77;;;;;;;19.46;59.74;99154.03;4977662;28;20042;-88
2021/08/06 03:14:44;;;;;;;6.28;2.25;;;;;;;19.43;59.60;99149.06;4994675;28;20047;-87
2021/08/06 03:17:13;;;;;;;4.45;1.73;;;;;;;19.20;60.53;99147.00;4958489;28;20039;-87
2021/08/06 03:19:43;;;;;;;6.15;2.00;;;;;;;19.23;60.48;99148.47;4954907;28;20042;-85
2021/08/06 03:22:11;;;;;;;4.30;2.38;;;;;;;19.15;60.71;99148.47;4963537;28;20043;-87
2021/08/06 03:24:38;;;;;;;2.70;1.83;;;;;;;19.04;60.87;99154.84;4950532;28;20036;-87
2021/08/06 03:27:05;;;;;;;6.47;2.95;;;;;;;19.13;60.79;99148.63;4962126;28;20097;-88
2021/08/06 03:29:33;;;;;;;4.80;2.15;;;;;;;18.92;61.32;99156.13;4968317;28;20064;-88
2021/08/06 03:31:59;;;;;;;5.10;1.88;;;;;;;18.78;61.68;99155.69;4952296;28;20054;-88
2021/08/06 03:34:26;;;;;;;3.72;1.90;;;;;;;18.92;61.20;99151.66;4970986;28;20077;-93
2021/08/06 03:36:54;;;;;;;5.30;1.90;;;;;;;19.03;60.71;99150.56;4950886;28;20036;-88
2021/08/06 03:39:22;;;;;;;5.32;2.15;;;;;;;19.03;60.54;99154.03;4964313;28;20183;-87
2021/08/06 03:41:50;;;;;;;4.00;1.80;;;;;;;19.16;60.19;99158.03;4954741;28;20039;-89
2021/08/06 03:44:17;;;;;;;4.97;1.90;;;;;;;19.16;59.94;99150.94;4956097;28;20121;-88
2021/08/06 03:46:44;;;;;;;7.07;2.85;;;;;;;19.18;59.86;99153.44;4968242;28;20133;-88
2021/08/06 03:49:11;;;;;;;5.32;2.78;;;;;;;19.00;60.35;99159.59;4955228;28;20031;-89
2021/08/06 03:51:38;;;;;;;5.00;2.47;;;;;;;18.98;60.61;99155.47;4968187;28;20039;-89
2021/08/06 03:54:05;;;;;;;4.55;2.00;;;;;;;19.01;60.50;99155.16;4950950;28;20047;-89
2021/08/06 03:56:34;;;;;;;2.08;1.50;;;;;;;19.23;59.80;99151.13;4966396;28;20070;-89
2021/08/06 03:59:00;;;;;;;5.13;2.40;;;;;;;19.27;59.67;99161.22;4967665;28;20043;-88
2021/08/06 04:01:28;;;;;;;6.10;1.98;;;;;;;19.21;59.88;99156.56;4954317;28;20043;-88
2021/08/06 04:03:55;;;;;;;4.88;1.98;;;;;;;19.22;59.92;99158.22;4953486;28;20097;-89
2021/08/06 04:06:22;;;;;;;3.95;2.28;;;;;;;19.27;59.77;99161.22;4953983;28;20043;-88
2021/08/06 04:08:50;;;;;;;4.45;2.17;;;;;;;19.35;59.61;99158.63;4963489;28;20035;-88
2021/08/06 04:11:20;;;;;;;2.10;1.90;;;;;;;19.25;59.92;99160.56;4968142;28;20546;-88
2021/08/06 04:13:47;;;;;;;3.22;2.22;;;;;;;19.36;59.63;99148.88;4954620;28;20046;-88
2021/08/06 04:16:14;;;;;;;4.70;2.28;;;;;;;19.50;59.22;99150.94;4969501;28;20043;-89
2021/08/06 04:18:41;;;;;;;6.10;1.67;;;;;;;19.55;59.10;99150.44;4945435;28;20402;-87
2021/08/06 04:21:08;;;;;;;2.95;1.90;;;;;;;19.51;59.21;99149.09;4964477;28;20042;-87
2021/08/06 04:23:34;;;;;;;6.78;1.77;;;;;;;19.67;58.53;99156.28;4954003;28;20433;-91
2021/08/06 04:26:02;;;;;;;3.08;1.40;;;;;;;19.60;58.60;99156.94;4969227;28;20094;-87
2021/08/06 04:28:28;;;;;;;3.40;2.38;;;;;;;19.62;58.74;99159.41;4950410;28;20209;-89
2021/08/06 04:30:58;;;;;;;4.07;1.88;;;;;;;19.44;59.34;99150.72;4969199;28;20037;-89
2021/08/06 04:33:25;;;;;;;3.70;2.20;;;;;;;19.43;59.40;99149.88;4950884;28;20066;-89
2021/08/06 04:35:52;;;;;;;2.28;1.63;;;;;;;19.59;58.94;99147.31;4956336;28;20043;-88
2021/08/06 04:38:18;;;;;;;3.70;2.13;;;;;;;19.60;58.57;99156.94;4973662;28;20141;-88
2021/08/06 04:40:45;;;;;;;4.65;2.50;;;;;;;19.80;58.11;99159.28;4973842;28;20066;-89
2021/08/06 04:43:12;;;;;;;3.42;1.70;;;;;;;19.88;57.64;99157.50;4956019;28;20049;-89
2021/08/06 04:45:39;;;;;;;6.32;2.00;;;;;;;20.15;56.86;99166.13;4956442;28;20050;-89
2021/08/06 04:48:06;;;;;;;5.18;2.25;;;;;;;20.27;56.36;99169.28;4955839;28;20105;-88
2021/08/06 04:50:35;;;;;;;4.05;1.83;;;;;;;20.53;55.98;99174.44;4973627;28;20062;-89
2021/08/06 04:53:03;;;;;;;7.82;1.92;;;;;;;20.65;55.83;99183.69;4955913;28;20053;-90
2021/08/06 04:55:32;;;;;;;9.93;2.03;;;;;;;20.59;56.55;99181.69;4956281;28;20078;-90
2021/08/06 04:58:01;;;;;;;4.32;1.92;;;;;;;20.79;55.76;99175.06;4955691;28;20493;-90
2021/08/06 05:00:28;;;;;;;5.05;1.42;;;;;;;20.84;55.40;99177.22;4956207;28;20043;-90
2021/08/06 05:02:57;;;;;;;5.00;1.90;;;;;;;21.17;54.53;99177.97;4955683;28;20462;-92
2021/08/06 05:05:28;;;;;;;2.90;2.17;;;;;;;21.43;53.60;99188.34;4950821;28;20035;-91
2021/08/06 05:07:55;;;;;;;9.55;3.13;;;;;;;21.69;53.18;99180.91;4964816;28;20042;-89
2021/08/06 05:10:27;;;;;;;2.92;1.98;;;;;;;21.71;54.33;99186.88;4955597;28;20039;-89
2021/08/06 05:12:54;;;;;;;2.38;1.48;;;;;;;21.79;54.71;99187.84;4973535;28;20042;-86
2021/08/06 05:15:22;;;;;;;6.13;2.08;;;;;;;21.78;54.54;99196.78;4955642;28;20054;-86
2021/08/06 05:17:51;;;;;;;4.43;2.00;;;;;;;21.88;54.04;99192.91;4955496;28;20098;-87
2021/08/06 05:20:19;;;;;;;7.38;2.08;;;;;;;22.09;53.83;99196.75;4955464;28;20043;-85
2021/08/06 05:22:46;;;;;;;11.70;2.42;;;;;;;22.34;53.32;99197.47;4955221;28;20042;-87
2021/08/06 05:25:14;;;;;;;7.75;2.00;;;;;;;22.55;52.81;99191.47;4955063;28;20118;-85
2021/08/06 05:27:43;;;;;;;6.13;2.53;;;;;;;22.61;53.47;99194.25;4954363;28;20383;-83
2021/08/06 05:30:12;;;;;;;3.50;2.00;;;;;;;22.92;52.59;99190.66;4965080;28;20042;-83
2021/08/06 05:32:42;;;;;;;4.88;2.05;;;;;;;23.03;52.30;99182.25;4967435;28;20120;-91
2021/08/06 05:35:12;;;;;;;6.30;2.03;;;;;;;23.27;51.79;99183.78;4955850;28;20097;-89
2021/08/06 05:37:40;;;;;;;11.50;2.38;;;;;;;23.34;51.71;99184.72;4957310;28;20039;-92
2021/08/06 05:40:08;;;;;;;6.13;1.92;;;;;;;23.72;49.97;99181.94;4956472;28;20050;-95
2021/08/06 05:42:37;;;;;;;12.25;3.05;;;;;;;23.95;49.00;99187.94;4986485;28;20039;-95
2021/08/06 05:45:05;;;;;;;4.57;1.70;;;;;;;24.03;48.88;99195.81;4977372;28;20038;-95
2021/08/06 05:47:45;;;;;;;5.80;2.55;;;;;;;24.26;49.06;99190.28;4962655;28;20047;-94
2021/08/06 05:50:15;;;;;;;5.70;2.67;;;;;;;24.16;48.42;99196.94;4960846;28;20166;-96
2021/08/06 05:52:45;;;;;;;5.80;1.60;;;;;;;24.69;47.25;99198.28;4960992;28;20055;-93
2021/08/06 05:55:13;;;;;;;2.47;2.00;;;;;;;24.27;48.00;99201.78;4944245;28;20047;-90
2021/08/06 05:57:42;;;;;;;6.82;2.25;;;;;;;24.54;47.58;99203.69;4954351;28;20513;-89
2021/08/06 06:00:11;;;;;;;7.38;2.53;;;;;;;24.65;47.54;99199.69;4962637;28;20162;-94
2021/08/06 06:02:41;;;;;;;6.97;2.10;;;;;;;24.73;47.42;99202.22;4966160;28;20034;-92
2021/08/06 06:05:25;;;;;;;6.40;2.35;;;;;;;24.94;47.02;99196.00;4965501;28;20379;-92
2021/08/06 06:07:52;;;;;;;7.28;2.88;;;;;;;24.92;47.06;99203.38;4951034;28;20047;-95
2021/08/06 06:10:21;;;;;;;3.47;2.55;;;;;;;24.48;47.96;99199.13;4937908;28;20130;-93
2021/08/06 06:12:51;;;;;;;7.72;2.28;;;;;;;24.85;47.41;99204.34;4946397;28;20047;-96
2021/08/06 06:15:19;;;;;;;5.68;2.17;;;;;;;24.81;47.62;99204.72;4946810;28;20102;-95
2021/08/06 06:17:47;;;;;;;4.90;2.00;;;;;;;24.85;47.77;99209.69;4954328;28;20039;-96
2021/08/06 06:20:17;;;;;;;7.20;2.47;;;;;;;24.70;48.03;99207.09;4970358;28;20106;-94
2021/08/06 06:22:45;;;;;;;5.50;2.40;;;;;;;24.61;48.49;99202.91;4954329;28;20070;-90
2021/08/06 06:25:13;;;;;;;4.90;1.98;;;;;;;24.84;48.24;99208.84;4971362;28;20047;-92
2021/08/06 06:28:10;;;;;;;4.20;2.10;;;;;;;24.90;47.87;99216.06;4969612;28;20046;-92
2021/08/06 06:30:44;;;;;;;5.03;2.45;;;;;;;24.89;48.00;99214.44;4947565;28;20050;-91
2021/08/06 06:33:13;;;;;;;4.50;2.67;;;;;;;24.82;48.20;99216.19;4959987;28;20054;-91
2021/08/06 06:35:41;;;;;;;3.83;2.15;;;;;;;24.66;48.54;99225.34;4957277;28;20490;-92
2021/08/06 06:38:09;;;;;;;6.00;2.03;;;;;;;24.94;47.94;99224.50;4941929;28;20071;-91
2021/08/06 06:40:35;;;;;;;4.43;2.20;;;;;;;25.03;47.94;99224.16;4956613;28;20083;-90
2021/08/06 06:43:09;;;;;;;3.63;2.03;;;;;;;24.89;48.48;99216.28;4958597;28;20047;-91
2021/08/06 06:45:36;;;;;;;3.15;2.00;;;;;;;24.94;48.38;99220.00;4964214;28;20477;-91
2021/08/06 06:48:07;;;;;;;7.97;2.08;;;;;;;25.00;48.28;99224.56;4974661;28;20034;-91
2021/08/06 06:50:36;;;;;;;4.75;2.30;;;;;;;24.85;48.81;99231.81;4950430;28;20043;-91
2021/08/06 06:53:04;;;;;;;5.07;2.35;;;;;;;24.80;49.01;99232.41;4966444;28;20046;-92
2021/08/06 06:55:31;;;;;;;5.50;2.85;;;;;;;24.89;48.69;99233.09;4975740;28;20043;-91
2021/08/06 06:57:58;;;;;;;6.93;2.70;;;;;;;24.71;49.33;99238.06;4975331;28;20047;-91
2021/08/06 07:00:31;;;;;;;6.85;2.53;;;;;;;24.94;48.94;99237.84;4968425;28;20081;-90
2021/08/06 07:03:01;;;;;;;6.68;2.65;;;;;;;24.75;49.27;99242.00;4957844;28;20070;-88
2021/08/06 07:05:29;;;;;;;5.10;2.35;;;;;;;24.68;49.26;99239.28;4974576;28;20528;-88
2021/08/06 07:07:57;;;;;;;7.18;4.03;;;;;;;24.67;49.40;99242.97;4970284;28;20039;-92
2021/08/06 07:10:25;;;;;;;3.47;2.65;;;;;;;24.41;49.97;99245.38;4975599;28;20039;-90
2021/08/06 07:12:54;;;;;;;5.90;2.47;;;;;;;24.55;50.19;99248.00;4963527;28;20038;-91
2021/08/06 07:15:22;;;;;;;8.70;2.78;;;;;;;24.48;50.28;99257.72;4974318;28;20158;-90
2021/08/06 07:17:48;;;;;;;3.83;2.70;;;;;;;24.42;50.52;99249.69;4974632;28;20035;-89
2021/08/06 07:20:19;;;;;;;7.10;2.70;;;;;;;24.51;50.51;99246.72;4979874;28;20501;-89
2021/08/06 07:22:47;;;;;;;4.65;2.72;;;;;;;24.56;50.86;99241.63;4992651;28;20038;-89
2021/08/06 07:25:15;;;;;;;6.00;2.20;;;;;;;24.56;50.55;99243.47;4987141;28;20066;-89
2021/08/06 07:27:43;;;;;;;3.22;2.00;;;;;;;24.45;51.16;99241.31;4942929;28;20067;-89
2021/08/06 07:30:12;;;;;;;7.57;3.00;;;;;;;24.44;51.67;99237.81;4958000;28;20054;-89
2021/08/06 07:32:40;;;;;;;5.40;2.50;;;;;;;24.62;51.71;99242.72;4958010;28;20417;-89
2021/08/06 07:35:08;;;;;;;7.22;3.17;;;;;;;24.40;52.38;99244.56;4961081;28;20114;-88
2021/08/06 07:37:35;;;;;;;5.38;2.65;;;;;;;24.42;51.74;99242.50;4953388;28;20039;-87
2021/08/06 07:40:04;;;;;;;2.63;2.00;;;;;;;24.51;51.75;99256.53;4958957;28;20055;-89
2021/08/06 07:42:31;;;;;;;4.47;2.45;;;;;;;24.38;51.73;99249.22;4958768;28;20046;-89
2021/08/06 07:44:58;;;;;;;6.15;2.47;;;;;;;24.47;51.51;99255.28;4960432;28;20046;-87
2021/08/06 07:47:25;;;;;;;4.72;2.50;;;;;;;24.44;51.91;99253.78;4959243;28;20141;-87
2021/08/06 07:49:52;;;;;;;6.53;2.85;;;;;;;24.49;52.21;99258.56;4957600;28;20122;-89
2021/08/06 07:52:20;;;;;;;6.35;2.90;;;;;;;24.33;52.00;99248.94;4974871;28;20050;-87
2021/08/06 07:54:47;;;;;;;7.47;3.00;;;;;;;24.47;51.97;99249.94;4973752;28;20174;-89
2021/08/06 07:57:15;;;;;;;6.70;2.53;;;;;;;24.26;51.97;99248.88;4974851;28;20055;-87
2021/08/06 07:59:42;;;;;;;5.70;3.25;;;;;;;24.43;51.98;99252.16;4957443;28;20074;-86
2021/08/06 08:02:09;;;;;;;4.10;3.00;;;;;;;24.45;52.11;99250.16;4957199;28;20046;-86
2021/08/06 08:04:36;;;;;;;5.07;2.60;;;;;;;24.51;51.78;99241.38;4974702;28;20487;-86
2021/08/06 08:07:04;;;;;;;6.43;3.08;;;;;;;24.30;52.10;99250.16;4958096;28;20094;-87
2021/08/06 08:09:31;;;;;;;10.27;2.95;;;;;;;24.45;51.77;99235.97;4956952;28;20042;-88
2021/08/06 08:11:58;;;;;;;4.28;2.58;;;;;;;24.28;52.31;99236.19;4957358;28;20054;-86
2021/08/06 08:14:25;;;;;;;7.18;2.63;;;;;;;24.54;52.71;99240.16;4956593;28;20101;-87
2021/08/06 08:16:53;;;;;;;4.40;3.22;;;;;;;24.64;52.42;99242.50;4957484;28;20102;-87
2021/08/06 08:19:20;;;;;;;5.50;3.00;;;;;;;24.60;52.30;99239.41;4957106;28;20133;-87
2021/08/06 08:21:48;;;;;;;6.90;2.85;;;;;;;24.71;51.81;99241.53;4956707;28;20524;-85
2021/08/06 08:24:15;;;;;;;9.48;3.80;;;;;;;24.61;52.49;99240.22;4974112;28;20050;-91
2021/08/06 08:26:43;;;;;;;8.27;2.83;;;;;;;24.74;51.61;99235.00;4957096;28;20077;-85
2021/08/06 08:29:11;;;;;;;5.03;2.60;;;;;;;24.97;51.12;99238.25;4957352;28;20094;-83
2021/08/06 08:31:38;;;;;;;5.22;3.45;;;;;;;24.61;52.22;99246.41;4974217;28;20122;-85
2021/08/06 08:34:05;;;;;;;5.32;2.25;;;;;;;24.91;51.47;99246.22;4957167;28;20067;-86
2021/08/06 08:36:32;;;;;;;7.07;2.53;;;;;;;24.76;51.01;99241.78;4952589;28;20512;-86
2021/08/06 08:38:59;;;;;;;5.72;2.95;;;;;;;24.50;51.83;99253.06;4965501;28;20059;-87
2021/08/06 08:41:28;;;;;;;5.45;2.72;;;;;;;24.70;51.50;99255.88;4969899;28;20116;-88
2021/08/06 08:43:56;;;;;;;6.35;2.85;;;;;;;24.67;51.40;99256.28;4962336;28;20171;-86
2021/08/06 08:46:26;;;;;;;4.00;2.65;;;;;;;24.71;51.41;99259.38;4942934;28;20073;-88
2021/08/06 08:48:59;;;;;;;7.47;3.72;;;;;;;24.79;51.18;99248.59;4957874;28;20150;-86
2021/08/06 08:51:29;;;;;;;5.15;3.38;;;;;;;24.59;51.11;99250.25;4963580;28;20520;-87
2021/08/06 08:54:02;;;;;;;4.35;2.90;;;;;;;24.79;50.66;99251.25;4954978;28;20410;-89
2021/08/06 08:56:31;;;;;;;10.15;3.03;;;;;;;24.76;51.26;99251.63;4958632;28;20046;-87
2021/08/06 08:58:59;;;;;;;5.78;3.92;;;;;;;24.87;50.58;99260.94;4955602;28;20125;-87
2021/08/06 09:01:27;;;;;;;5.95;2.75;;;;;;;24.92;50.08;99256.69;4963376;28;20133;-88
2021/08/06 09:03:55;;;;;;;5.88;3.08;;;;;;;24.87;50.18;99256.44;4962833;28;20113;-87
2021/08/06 09:06:43;;;;;;;10.88;4.07;;;;;;;25.06;49.78;99255.81;4956737;28;20134;-88
2021/08/06 09:09:21;;;;;;;7.63;3.80;;;;;;;25.01;49.84;99246.72;4957643;28;20081;-86
2021/08/06 09:12:13;;;;;;;8.65;3.00;;;;;;;24.98;49.87;99242.59;4955801;28;20058;-87
2021/08/06 09:15:02;;;;;;;6.88;3.17;;;;;;;24.84;49.97;99243.50;4959908;28;20109;-88
2021/08/06 09:17:35;;;;;;;5.30;3.10;;;;;;;25.08;50.26;99247.59;4975024;28;20047;-86
2021/08/06 09:20:09;;;;;;;10.60;3.50;;;;;;;25.07;50.34;99256.63;4973906;28;20053;-87
2021/08/06 09:22:41;;;;;;;8.13;3.50;;;;;;;24.89;50.50;99251.75;4961261;28;20042;-87
2021/08/06 09:25:18;;;;;;;7.13;3.95;;;;;;;25.13;50.19;99257.69;4976698;28;20051;-88
2021/08/06 09:27:59;;;;;;;8.80;3.25;;;;;;;25.16;50.42;99254.66;4949700;28;20046;-87
2021/08/06 09:30:37;;;;;;;9.68;4.20;;;;;;;25.31;49.90;99245.50;4968940;28;20049;-88
2021/08/06 09:33:07;;;;;;;4.85;3.65;;;;;;;24.97;50.16;99245.44;4970740;28;20405;-89
2021/08/06 09:35:35;;;;;;;12.10;4.03;;;;;;;25.20;50.03;99246.06;4962930;28;20043;-88
2021/08/06 09:38:04;;;;;;;7.53;4.00;;;;;;;25.43;48.63;99240.44;4974224;28;20398;-88
2021/08/06 09:40:36;;;;;;;10.45;3.63;;;;;;;25.29;48.98;99249.38;4962101;28;20042;-88
2021/08/06 09:43:15;;;;;;;6.20;3.25;;;;;;;25.37;48.77;99246.56;4970562;28;20048;-88
2021/08/06 09:45:42;;;;;;;5.07;3.50;;;;;;;25.29;49.93;99247.53;4977198;28;20043;-89
2021/08/06 09:48:09;;;;;;;5.95;3.90;;;;;;;25.33;49.81;99242.63;4983671;28;20050;-87
2021/08/06 09:50:47;;;;;;;6.75;4.45;;;;;;;25.40;49.12;99245.34;4975594;28;20039;-89
2021/08/06 09:53:14;;;;;;;11.70;3.80;;;;;;;25.34;48.89;99255.78;4977911;28;20105;-87
2021/08/06 09:55:44;;;;;;;8.68;4.47;;;;;;;25.47;48.31;99257.72;4967173;28;20520;-89
2021/08/06 09:58:14;;;;;;;5.97;3.13;;;;;;;25.52;48.17;99260.63;4978423;28;20483;-85
2021/08/06 10:00:43;;;;;;;13.38;4.55;;;;;;;25.67;48.28;99262.31;4970557;28;20453;-87
2021/08/06 10:03:35;;;;;;;7.03;3.83;;;;;;;25.34;48.84;99260.28;4957047;28;20097;-88
2021/08/06 10:06:15;;;;;;;4.97;3.70;;;;;;;25.39;48.82;99265.03;4959601;28;20553;-87
2021/08/06 10:08:43;;;;;;;;;;;;;;;25.62;48.41;99260.25;4972793;28;20097;-87
2021/08/06 10:11:10;;;;;;;7.15;4.10;;;;;;;25.77;48.17;99252.13;4973772;28;19977;-86
2021/08/06 10:13:38;;;;;;;10.05;4.63;;;;;;;25.86;48.19;99253.63;4970373;28;20042;-90
2021/08/06 10:16:06;;;;;;;8.90;5.47;;;;;;;25.82;47.73;99252.34;4982456;28;20046;-87
2021/08/06 10:18:33;;;;;;;5.07;3.78;;;;;;;26.01;47.36;99259.63;4980149;28;20035;-86
2021/08/06 10:20:59;;;;;;;10.65;3.58;;;;;;;25.76;47.82;99261.16;4977629;28;20102;-88
2021/08/06 10:23:26;;;;;;;7.10;5.13;;;;;;;26.07;46.93;99250.81;4978076;28;20035;-86
2021/08/06 10:25:54;;;;;;;5.82;4.25;;;;;;;26.13;46.60;99252.66;4979644;28;20039;-87
2021/08/06 10:28:21;;;;;;;10.15;3.75;;;;;;;26.21;46.76;99257.03;4978575;28;20572;-87
2021/08/06 10:30:48;;;;;;;5.78;3.30;;;;;;;26.11;46.61;99252.06;4982471;28;20040;-87
2021/08/06 10:33:23;;;;;;;6.93;3.53;;;;;;;26.20;46.11;99247.34;4977630;28;20490;-86
2021/08/06 10:36:06;;;;;;;4.35;3.35;;;;;;;26.24;46.26;99239.75;4978936;28;20042;-87
2021/08/06 10:38:38;;;;;;;7.27;3.37;;;;;;;26.31;46.50;99237.91;4977046;28;20043;-87
2021/08/06 10:41:17;;;;;;;6.15;3.40;;;;;;;26.01;47.09;99240.94;4958146;28;20050;-86
2021/08/06 10:44:07;;;;;;;4.57;3.10;;;;;;;26.27;46.47;99226.00;4962985;28;20066;-84
2021/08/06 10:46:58;;;;;;;7.60;3.67;;;;;;;26.45;46.14;99234.28;4961791;28;20039;-87
2021/08/06 10:49:27;;;;;;;6.25;3.40;;;;;;;26.24;46.72;99221.06;4966699;28;20047;-87
2021/08/06 10:52:21;;;;;;;7.93;3.85;;;;;;;26.53;45.75;99220.72;4964381;28;20073;-87
2021/08/06 10:54:49;;;;;;;9.75;3.58;;;;;;;26.45;45.42;99228.13;4973387;28;20039;-89
2021/08/06 10:57:19;;;;;;;7.35;3.47;;;;;;;26.47;45.41;99221.53;4975232;28;20047;-90
2021/08/06 10:59:48;;;;;;;4.18;3.25;;;;;;;26.46;45.52;99217.22;4975623;28;20046;-93
2021/08/06 11:02:40;;;;;;;6.03;3.42;;;;;;;26.66;45.05;99213.72;4975708;28;20038;-91
2021/08/06 11:05:39;;;;;;;3.88;3.17;;;;;;;26.77;45.19;99213.94;4972424;28;20391;-89
2021/08/06 11:08:44;;;;;;;4.72;2.95;;;;;;;26.62;44.79;99216.81;4963106;28;20043;-91
2021/08/06 11:11:45;;;;;;;12.00;3.53;;;;;;;26.69;44.95;99211.47;4974876;28;20050;-89
2021/08/06 11:14:25;;;;;;;4.70;3.47;;;;;;;26.64;45.58;99217.44;4973287;28;20053;-89
2021/08/06 11:17:33;;;;;;;4.97;3.05;;;;;;;26.78;44.55;99218.25;4974743;28;20106;-89
2021/08/06 11:20:14;;;;;;;8.10;3.40;;;;;;;27.10;44.45;99213.91;4974756;28;20549;-87
2021/08/06 11:22:47;;;;;;;4.50;3.13;;;;;;;26.88;44.51;99209.81;4974323;28;20042;-86
2021/08/06 11:25:23;;;;;;;6.20;3.10;;;;;;;26.80;44.81;99200.16;4972293;28;20134;-89
2021/08/06 11:27:54;;;;;;;6.18;2.97;;;;;;;27.04;43.83;99201.34;4973946;28;20050;-85
2021/08/06 11:30:27;;;;;;;10.65;3.85;;;;;;;27.27;43.72;99208.13;4970207;28;20125;-88
2021/08/06 11:32:56;;;;;;;5.72;3.75;;;;;;;27.18;44.06;99201.38;4973225;28;20043;-88
2021/08/06 11:35:33;;;;;;;6.85;3.28;;;;;;;27.35;43.57;99198.03;4973173;28;20046;-87
2021/08/06 11:38:15;;;;;;;7.30;4.32;;;;;;;27.23;43.81;99189.00;4973331;28;20046;-88
2021/08/06 11:40:50;;;;;;;6.25;3.42;;;;;;;27.27;43.64;99197.41;4973032;28;20054;-86
2021/08/06 11:43:22;;;;;;;4.68;3.65;;;;;;;27.58;43.20;99194.84;4973256;28;20779;-87
2021/08/06 11:46:04;;;;;;;6.03;3.80;;;;;;;27.50;43.04;99200.44;4957964;28;20352;-87
2021/08/06 11:48:56;;;;;;;9.95;4.30;;;;;;;27.42;43.20;99188.09;4975184;28;20449;-86
2021/08/06 11:51:23;;;;;;;7.15;2.88;;;;;;;27.44;43.14;99189.78;4975046;28;20047;-85
2021/08/06 11:53:50;;;;;;;6.13;3.78;;;;;;;27.49;43.75;99188.09;4974958;28;20038;-89